Time;durP1;ratioP1;P1;durP2;ratioP2;P2;SDS_P1;SDS_P2;PMS_P1;PMS_P2;Temp;Humidity;BMP_temperature;BMP_pressure;BME280_temperature;BME280_humidity;BME280_pressure;Samples;Min_cycle;Max_cycle;Signal;HPM_P1;HPM_P2
2023/04/18 00:01:13;;;;;;;24.35;16.05;;;;;;;;;;5109082;28;20047;-75
2023/04/18 00:03:39;;;;;;;23.20;15.82;;;;;;;;;;5113378;28;20118;-75
2023/04/18 00:06:05;;;;;;;23.45;15.27;;;;;;;;;;5093891;28;20036;-75
2023/04/18 00:08:33;;;;;;;19.80;14.90;;;;;;;;;;5113409;28;20092;-75
2023/04/18 00:10:59;;;;;;;19.63;14.23;;;;;;;;;;5111135;28;20385;-74
2023/04/18 00:13:27;;;;;;;21.63;13.88;;;;;;;;;;5123532;28;20035;-75
2023/04/18 00:15:53;;;;;;;20.77;13.05;;;;;;;;;;5114169;28;20543;-75
2023/04/18 00:18:20;;;;;;;19.55;13.32;;;;;;;;;;5110478;28;20060;-75
2023/04/18 00:20:46;;;;;;;18.00;12.38;;;;;;;;;;5102502;28;20051;-75
2023/04/18 00:23:15;;;;;;;20.67;12.20;;;;;;;;;;5114248;28;20047;-75
2023/04/18 00:25:41;;;;;;;17.17;12.00;;;;;;;;;;5114196;28;20473;-75
2023/04/18 00:28:07;;;;;;;16.95;10.75;;;;;;;;;;5114142;28;20119;-75
2023/04/18 00:30:33;;;;;;;16.48;10.57;;;;;;;;;;5113731;28;20435;-75
2023/04/18 00:32:59;;;;;;;12.85;10.07;;;;;;;;;;5096436;28;20526;-75
2023/04/18 00:35:25;;;;;;;13.07;10.10;;;;;;;;;;5112963;28;20039;-75
2023/04/18 00:37:51;;;;;;;15.10;10.13;;;;;;;;;;5098106;28;20055;-75
2023/04/18 00:40:17;;;;;;;13.10;9.82;;;;;;;;;;5118305;28;20071;-75
2023/04/18 00:42:43;;;;;;;13.65;10.15;;;;;;;;;;5105659;28;20055;-75
2023/04/18 00:45:09;;;;;;;13.55;9.98;;;;;;;;;;5096964;28;20031;-75
2023/04/18 00:47:35;;;;;;;14.55;10.00;;;;;;;;;;5098664;28;20036;-75
2023/04/18 00:50:02;;;;;;;15.70;11.27;;;;;;;;;;5098535;28;20048;-75
2023/04/18 00:52:28;;;;;;;17.63;10.60;;;;;;;;;;5099018;28;20040;-75
2023/04/18 00:54:54;;;;;;;14.88;10.02;;;;;;;;;;5107780;28;20047;-75
2023/04/18 00:57:21;;;;;;;14.10;10.43;;;;;;;;;;5117523;28;20097;-75
2023/04/18 00:59:47;;;;;;;17.38;10.07;;;;;;;;;;5117509;28;20040;-75
2023/04/18 01:02:13;;;;;;;13.00;9.90;;;;;;;;;;5107329;28;20036;-75
2023/04/18 01:04:41;;;;;;;16.58;10.52;;;;;;;;;;5109851;28;20082;-75
2023/04/18 01:07:08;;;;;;;16.95;10.60;;;;;;;;;;5114612;28;20043;-75
2023/04/18 01:09:34;;;;;;;13.35;10.18;;;;;;;;;;5112224;28;20076;-75
2023/04/18 01:12:00;;;;;;;18.23;10.95;;;;;;;;;;5111317;28;20092;-75
2023/04/18 01:14:26;;;;;;;15.48;9.68;;;;;;;;;;5104168;28;20048;-75
2023/04/18 01:16:53;;;;;;;14.10;9.32;;;;;;;;;;5115623;28;20044;-75
2023/04/18 01:19:19;;;;;;;13.52;9.60;;;;;;;;;;5103141;28;20091;-75
2023/04/18 01:21:45;;;;;;;11.35;8.43;;;;;;;;;;5117300;28;20043;-75
2023/04/18 01:24:11;;;;;;;12.55;8.52;;;;;;;;;;5102450;28;20040;-75
2023/04/18 01:26:38;;;;;;;12.77;7.95;;;;;;;;;;5106184;28;20060;-75
2023/04/18 01:29:05;;;;;;;13.23;8.00;;;;;;;;;;5102898;28;20091;-75
2023/04/18 01:31:35;;;;;;;10.60;6.93;;;;;;;;;;5096986;28;20044;-75
2023/04/18 01:34:01;;;;;;;13.85;7.60;;;;;;;;;;5069472;28;20044;-75
2023/04/18 01:36:27;;;;;;;12.20;8.25;;;;;;;;;;5107316;28;20031;-75
2023/04/18 01:38:53;;;;;;;10.23;7.80;;;;;;;;;;5116674;28;20079;-75
2023/04/18 01:41:19;;;;;;;11.68;8.13;;;;;;;;;;5117116;28;20097;-75
2023/04/18 01:43:45;;;;;;;12.98;8.77;;;;;;;;;;5105063;28;20062;-75
2023/04/18 01:46:11;;;;;;;11.45;8.10;;;;;;;;;;5104125;28;20093;-75
2023/04/18 01:48:38;;;;;;;12.27;8.65;;;;;;;;;;5093571;28;20062;-74
2023/04/18 01:51:04;;;;;;;12.18;8.27;;;;;;;;;;5113353;28;20040;-74
2023/04/18 01:53:30;;;;;;;10.55;8.20;;;;;;;;;;5087927;28;20044;-75
2023/04/18 01:55:57;;;;;;;9.82;7.43;;;;;;;;;;5114746;28;20075;-74
2023/04/18 01:58:24;;;;;;;10.82;7.40;;;;;;;;;;5115666;28;20474;-74
2023/04/18 02:00:51;;;;;;;9.57;6.65;;;;;;;;;;5086482;28;20047;-75
2023/04/18 02:03:17;;;;;;;8.93;7.03;;;;;;;;;;5103976;28;20039;-75
2023/04/18 02:05:43;;;;;;;10.82;6.80;;;;;;;;;;5112368;28;20039;-75
2023/04/18 02:08:10;;;;;;;8.52;6.35;;;;;;;;;;5115174;28;20406;-75
2023/04/18 02:10:36;;;;;;;8.95;6.50;;;;;;;;;;5097886;28;20107;-75
2023/04/18 02:13:03;;;;;;;7.47;6.00;;;;;;;;;;5086735;28;20136;-75
2023/04/18 02:15:29;;;;;;;8.75;6.32;;;;;;;;;;5081212;28;20436;-75
2023/04/18 02:17:55;;;;;;;8.57;6.07;;;;;;;;;;5089862;28;20043;-75
2023/04/18 02:20:21;;;;;;;10.02;6.38;;;;;;;;;;5095504;28;20067;-77
2023/04/18 02:22:47;;;;;;;9.15;5.53;;;;;;;;;;5114733;28;20531;-75
2023/04/18 02:25:13;;;;;;;10.40;6.00;;;;;;;;;;5116024;28;20123;-75
2023/04/18 02:27:40;;;;;;;7.63;5.88;;;;;;;;;;5098074;28;20046;-75
2023/04/18 02:30:06;;;;;;;8.93;6.00;;;;;;;;;;5097786;28;20048;-75
2023/04/18 02:32:32;;;;;;;10.90;5.70;;;;;;;;;;5077348;28;20083;-75
2023/04/18 02:34:58;;;;;;;7.35;5.72;;;;;;;;;;5095711;27;20049;-75
2023/04/18 02:37:24;;;;;;;9.02;5.70;;;;;;;;;;5092110;28;20512;-75
2023/04/18 02:39:50;;;;;;;9.18;6.18;;;;;;;;;;5115624;28;20546;-73
2023/04/18 02:42:16;;;;;;;9.68;6.50;;;;;;;;;;5115914;28;20047;-74
2023/04/18 02:44:42;;;;;;;9.85;6.80;;;;;;;;;;5105608;28;20115;-75
2023/04/18 02:47:08;;;;;;;9.35;7.05;;;;;;;;;;5107486;28;20075;-75
2023/04/18 02:49:34;;;;;;;13.93;7.38;;;;;;;;;;5100989;28;20072;-75
2023/04/18 02:52:00;;;;;;;12.32;7.72;;;;;;;;;;5110364;28;20040;-74
2023/04/18 02:54:27;;;;;;;12.45;8.40;;;;;;;;;;5113203;28;20135;-75
2023/04/18 02:56:53;;;;;;;12.20;8.07;;;;;;;;;;5105108;28;20036;-75
2023/04/18 02:59:19;;;;;;;14.75;8.70;;;;;;;;;;5115169;28;20039;-75
2023/04/18 03:01:46;;;;;;;14.38;8.27;;;;;;;;;;5105672;28;20040;-75
2023/04/18 03:04:12;;;;;;;13.85;8.20;;;;;;;;;;5102616;28;20040;-75
2023/04/18 03:06:38;;;;;;;11.88;8.20;;;;;;;;;;5111989;28;20409;-75
2023/04/18 03:09:04;;;;;;;12.50;7.40;;;;;;;;;;5107797;28;20374;-75
2023/04/18 03:11:30;;;;;;;13.27;7.63;;;;;;;;;;5098965;28;20465;-75
2023/04/18 03:13:56;;;;;;;10.95;7.10;;;;;;;;;;5114816;28;20047;-75
2023/04/18 03:16:22;;;;;;;11.65;7.32;;;;;;;;;;5104899;28;20040;-75
2023/04/18 03:18:48;;;;;;;11.73;7.38;;;;;;;;;;5113879;28;20059;-75
2023/04/18 03:21:14;;;;;;;9.60;6.57;;;;;;;;;;5114529;28;20054;-75
2023/04/18 03:23:40;;;;;;;11.80;7.22;;;;;;;;;;5106694;28;20055;-75
2023/04/18 03:26:07;;;;;;;10.13;7.72;;;;;;;;;;5095713;28;20052;-75
2023/04/18 03:28:33;;;;;;;11.52;7.72;;;;;;;;;;5114588;28;20043;-75
2023/04/18 03:31:00;;;;;;;13.57;7.80;;;;;;;;;;5100188;28;20351;-75
2023/04/18 03:33:27;;;;;;;13.55;8.57;;;;;;;;;;5097398;28;20126;-75
2023/04/18 03:35:53;;;;;;;14.80;8.65;;;;;;;;;;5108340;28;20062;-75
2023/04/18 03:38:20;;;;;;;13.05;8.43;;;;;;;;;;5102217;28;20047;-75
2023/04/18 03:40:46;;;;;;;11.60;8.40;;;;;;;;;;5109817;28;20048;-75
2023/04/18 03:43:12;;;;;;;11.95;8.50;;;;;;;;;;5114283;28;20462;-75
2023/04/18 03:45:38;;;;;;;15.18;9.15;;;;;;;;;;5119690;28;20045;-75
2023/04/18 03:48:05;;;;;;;13.93;9.05;;;;;;;;;;5116788;28;20072;-75
2023/04/18 03:50:31;;;;;;;14.70;9.95;;;;;;;;;;5094743;28;20105;-74
2023/04/18 03:52:57;;;;;;;14.02;9.55;;;;;;;;;;5111958;28;20044;-75
2023/04/18 03:55:25;;;;;;;13.05;9.73;;;;;;;;;;5114334;28;20148;-75
2023/04/18 03:57:51;;;;;;;14.93;9.63;;;;;;;;;;5110359;28;20055;-75
2023/04/18 04:00:17;;;;;;;14.02;9.38;;;;;;;;;;5096998;28;20040;-75
2023/04/18 04:02:43;;;;;;;15.85;10.00;;;;;;;;;;5107990;28;20045;-75
2023/04/18 04:05:09;;;;;;;15.10;10.52;;;;;;;;;;5105175;28;20046;-75
2023/04/18 04:07:35;;;;;;;16.80;10.95;;;;;;;;;;5103726;28;20039;-73
2023/04/18 04:10:01;;;;;;;15.95;11.43;;;;;;;;;;5112283;28;20039;-73
2023/04/18 04:12:27;;;;;;;18.63;11.55;;;;;;;;;;5085625;28;20043;-74
2023/04/18 04:14:53;;;;;;;17.95;12.13;;;;;;;;;;5113503;28;20070;-75
2023/04/18 04:17:20;;;;;;;18.13;11.70;;;;;;;;;;5105432;28;20045;-76
2023/04/18 04:19:46;;;;;;;17.35;11.55;;;;;;;;;;5113742;28;20091;-75
2023/04/18 04:22:12;;;;;;;19.65;12.57;;;;;;;;;;5113824;28;20035;-75
2023/04/18 04:24:38;;;;;;;20.60;12.15;;;;;;;;;;5114466;28;20087;-75
2023/04/18 04:27:04;;;;;;;22.95;11.60;;;;;;;;;;5114339;28;20040;-75
2023/04/18 04:29:30;;;;;;;18.30;13.20;;;;;;;;;;5119144;28;20495;-76
2023/04/18 04:31:58;;;;;;;19.20;13.07;;;;;;;;;;5109022;28;20417;-75
2023/04/18 04:34:24;;;;;;;19.20;12.00;;;;;;;;;;5096547;28;20051;-75
2023/04/18 04:36:50;;;;;;;17.98;11.80;;;;;;;;;;5114090;28;20039;-75
2023/04/18 04:39:16;;;;;;;18.13;12.27;;;;;;;;;;5114138;28;20051;-75
2023/04/18 04:41:42;;;;;;;19.30;11.52;;;;;;;;;;5114125;28;20051;-75
2023/04/18 04:44:08;;;;;;;17.05;11.32;;;;;;;;;;5114012;28;20049;-75
2023/04/18 04:46:38;;;;;;;17.00;11.70;;;;;;;;;;5097229;28;20551;-75
2023/04/18 04:49:04;;;;;;;18.23;12.38;;;;;;;;;;5112532;28;20079;-74
2023/04/18 04:51:31;;;;;;;18.80;12.02;;;;;;;;;;5110893;28;20093;-75
2023/04/18 04:54:00;;;;;;;18.02;11.95;;;;;;;;;;5095134;28;20040;-75
2023/04/18 04:56:29;;;;;;;19.80;12.00;;;;;;;;;;5113176;28;20057;-75
2023/04/18 04:58:55;;;;;;;17.73;12.07;;;;;;;;;;5113247;28;20131;-75
2023/04/18 05:01:26;;;;;;;17.25;12.15;;;;;;;;;;5107132;28;20444;-75
2023/04/18 05:03:52;;;;;;;18.05;11.90;;;;;;;;;;5111646;28;20071;-75
2023/04/18 05:06:19;;;;;;;19.13;11.32;;;;;;;;;;5102473;28;20100;-76
2023/04/18 05:08:52;;;;;;;18.13;11.50;;;;;;;;;;5112504;28;20516;-75
2023/04/18 05:11:18;;;;;;;20.10;11.73;;;;;;;;;;5091973;28;20123;-75
2023/04/18 05:13:44;;;;;;;20.40;11.50;;;;;;;;;;5110529;28;20039;-76
2023/04/18 05:16:16;;;;;;;18.95;12.07;;;;;;;;;;5112288;28;20053;-75
2023/04/18 05:18:53;;;;;;;17.10;11.27;;;;;;;;;;5110848;28;20058;-75
2023/04/18 05:21:19;;;;;;;16.20;10.75;;;;;;;;;;5102578;28;20043;-76
2023/04/18 05:23:45;;;;;;;18.15;11.60;;;;;;;;;;5112993;28;20423;-75
2023/04/18 05:26:11;;;;;;;18.02;12.20;;;;;;;;;;5073715;28;20478;-75
2023/04/18 05:28:37;;;;;;;17.70;11.13;;;;;;;;;;5081619;28;20092;-76
2023/04/18 05:31:03;;;;;;;17.60;10.95;;;;;;;;;;5092645;28;20036;-75
2023/04/18 05:33:30;;;;;;;20.52;11.50;;;;;;;;;;5108420;28;20338;-75
2023/04/18 05:35:56;;;;;;;16.67;10.82;;;;;;;;;;5080946;28;20051;-75
2023/04/18 05:38:22;;;;;;;15.98;11.20;;;;;;;;;;5103001;28;20120;-75
2023/04/18 05:40:50;;;;;;;16.50;10.90;;;;;;;;;;5107567;28;20114;-75
2023/04/18 05:43:19;;;;;;;16.35;11.25;;;;;;;;;;5116010;28;20051;-75
2023/04/18 05:45:45;;;;;;;18.27;11.13;;;;;;;;;;5098319;28;20060;-76
2023/04/18 05:48:11;;;;;;;18.98;10.90;;;;;;;;;;5113568;28;20527;-76
2023/04/18 05:50:37;;;;;;;16.65;11.32;;;;;;;;;;5096580;28;20047;-76
2023/04/18 05:53:03;;;;;;;13.35;10.30;;;;;;;;;;5105371;28;20040;-76
2023/04/18 05:55:29;;;;;;;17.02;10.27;;;;;;;;;;5115510;28;20088;-75
2023/04/18 05:57:55;;;;;;;13.93;9.50;;;;;;;;;;5115935;28;20452;-76
2023/04/18 06:00:22;;;;;;;14.77;9.52;;;;;;;;;;5096339;28;20040;-76
2023/04/18 06:02:49;;;;;;;16.48;9.45;;;;;;;;;;5102642;28;20542;-76
2023/04/18 06:05:15;;;;;;;15.30;9.07;;;;;;;;;;5082672;28;20053;-76
2023/04/18 06:07:41;;;;;;;13.70;9.57;;;;;;;;;;5104587;28;20083;-76
2023/04/18 06:10:10;;;;;;;14.25;9.05;;;;;;;;;;5102686;28;20071;-76
2023/04/18 06:12:36;;;;;;;13.70;9.55;;;;;;;;;;5107466;28;20051;-77
2023/04/18 06:15:02;;;;;;;12.32;9.32;;;;;;;;;;5101184;28;20047;-76
2023/04/18 06:17:28;;;;;;;12.65;9.07;;;;;;;;;;5097581;28;20047;-76
2023/04/18 06:19:57;;;;;;;12.02;8.40;;;;;;;;;;5116552;28;20048;-77
2023/04/18 06:22:23;;;;;;;13.90;8.43;;;;;;;;;;5116094;28;20497;-76
2023/04/18 06:24:49;;;;;;;14.10;8.20;;;;;;;;;;5115883;28;20043;-76
2023/04/18 06:27:15;;;;;;;16.02;8.75;;;;;;;;;;5111487;28;20695;-79
2023/04/18 06:29:42;;;;;;;9.88;7.35;;;;;;;;;;5100271;28;20097;-76
2023/04/18 06:32:08;;;;;;;11.60;7.60;;;;;;;;;;5108047;27;20425;-76
2023/04/18 06:34:37;;;;;;;8.55;7.05;;;;;;;;;;5098515;28;20040;-76
2023/04/18 06:37:03;;;;;;;12.75;7.35;;;;;;;;;;5087628;28;20059;-76
2023/04/18 06:39:29;;;;;;;14.18;8.20;;;;;;;;;;5098495;28;20052;-76
2023/04/18 06:41:56;;;;;;;11.60;7.68;;;;;;;;;;5110058;28;20069;-76
2023/04/18 06:44:22;;;;;;;11.15;7.28;;;;;;;;;;5099623;28;20505;-77
2023/04/18 06:46:48;;;;;;;12.23;8.20;;;;;;;;;;5106625;28;20050;-77
2023/04/18 06:49:14;;;;;;;11.40;8.18;;;;;;;;;;5112781;28;20039;-77
2023/04/18 06:51:40;;;;;;;11.65;7.68;;;;;;;;;;5116582;28;20051;-76
2023/04/18 06:54:06;;;;;;;11.82;8.77;;;;;;;;;;5119895;28;20039;-77
2023/04/18 06:56:32;;;;;;;12.10;7.75;;;;;;;;;;5117131;28;20382;-77
2023/04/18 06:58:58;;;;;;;14.52;8.30;;;;;;;;;;5115871;28;20116;-77
2023/04/18 07:01:24;;;;;;;14.65;8.52;;;;;;;;;;5097430;28;20433;-77
2023/04/18 07:03:50;;;;;;;12.57;8.68;;;;;;;;;;5115295;28;20070;-76
2023/04/18 07:06:17;;;;;;;15.75;8.00;;;;;;;;;;5114687;28;20043;-77
2023/04/18 07:08:43;;;;;;;10.63;7.68;;;;;;;;;;5114949;28;20043;-77
2023/04/18 07:11:12;;;;;;;12.30;8.23;;;;;;;;;;5113837;28;20035;-76
2023/04/18 07:13:38;;;;;;;12.43;8.15;;;;;;;;;;5115333;28;20048;-77
2023/04/18 07:16:04;;;;;;;12.48;8.30;;;;;;;;;;5115232;28;20031;-76
2023/04/18 07:18:30;;;;;;;13.98;8.32;;;;;;;;;;5114854;28;20075;-77
2023/04/18 07:20:56;;;;;;;11.63;8.23;;;;;;;;;;5096706;28;20116;-77
2023/04/18 07:23:23;;;;;;;12.30;8.27;;;;;;;;;;5114901;28;20044;-76
2023/04/18 07:25:49;;;;;;;11.57;8.32;;;;;;;;;;5113275;28;20039;-77
2023/04/18 07:28:15;;;;;;;12.00;7.93;;;;;;;;;;5114903;28;20114;-77
2023/04/18 07:30:41;;;;;;;11.88;8.38;;;;;;;;;;5115071;28;20044;-77
2023/04/18 07:33:07;;;;;;;14.43;8.27;;;;;;;;;;5102069;28;20114;-77
2023/04/18 07:35:34;;;;;;;12.32;7.43;;;;;;;;;;5099709;28;20048;-77
2023/04/18 07:38:00;;;;;;;9.93;7.50;;;;;;;;;;5114419;28;20653;-77
2023/04/18 07:40:26;;;;;;;13.95;7.53;;;;;;;;;;5108861;28;20044;-77
2023/04/18 07:42:52;;;;;;;11.48;7.80;;;;;;;;;;5095893;28;20036;-77
2023/04/18 07:45:18;;;;;;;10.40;6.95;;;;;;;;;;5114487;28;20040;-77
2023/04/18 07:47:44;;;;;;;10.40;6.60;;;;;;;;;;5114195;28;20066;-77
2023/04/18 07:50:11;;;;;;;11.52;7.15;;;;;;;;;;5094226;28;20410;-77
2023/04/18 07:52:37;;;;;;;10.77;6.93;;;;;;;;;;5094500;28;20036;-77
2023/04/18 07:55:03;;;;;;;8.25;6.55;;;;;;;;;;5090359;28;20115;-77
2023/04/18 07:57:29;;;;;;;11.73;7.00;;;;;;;;;;5093531;28;20189;-77
2023/04/18 07:59:55;;;;;;;12.65;7.18;;;;;;;;;;5094388;28;20131;-77
2023/04/18 08:02:21;;;;;;;9.68;6.97;;;;;;;;;;5094277;28;20055;-77
2023/04/18 08:04:48;;;;;;;9.57;7.18;;;;;;;;;;5110145;28;20122;-77
2023/04/18 08:07:15;;;;;;;13.50;6.93;;;;;;;;;;5114558;28;20040;-77
2023/04/18 08:09:41;;;;;;;10.48;7.10;;;;;;;;;;5113533;28;20054;-77
2023/04/18 08:12:07;;;;;;;10.88;7.28;;;;;;;;;;5114051;28;20104;-77
2023/04/18 08:14:33;;;;;;;12.93;7.43;;;;;;;;;;5113705;28;20088;-77
2023/04/18 08:16:59;;;;;;;10.23;7.35;;;;;;;;;;5114379;28;20054;-77
2023/04/18 08:19:25;;;;;;;12.02;7.68;;;;;;;;;;5113745;28;20056;-77
2023/04/18 08:21:51;;;;;;;8.95;6.88;;;;;;;;;;5113288;28;20047;-77
2023/04/18 08:24:17;;;;;;;10.63;7.32;;;;;;;;;;5113898;28;20172;-77
2023/04/18 08:26:44;;;;;;;9.63;7.07;;;;;;;;;;5114181;28;20062;-77
2023/04/18 08:29:10;;;;;;;9.27;7.47;;;;;;;;;;5113802;28;20438;-75
2023/04/18 08:31:36;;;;;;;12.35;7.88;;;;;;;;;;5113905;28;20051;-75
2023/04/18 08:34:02;;;;;;;12.05;7.90;;;;;;;;;;5113833;28;20127;-75
2023/04/18 08:36:28;;;;;;;11.13;8.55;;;;;;;;;;5078750;28;20414;-75
2023/04/18 08:38:55;;;;;;;12.57;8.07;;;;;;;;;;5080424;28;20043;-75
2023/04/18 08:41:22;;;;;;;10.05;7.75;;;;;;;;;;5093710;28;20109;-75
2023/04/18 08:43:48;;;;;;;9.40;7.35;;;;;;;;;;5093547;28;20052;-77
2023/04/18 08:46:14;;;;;;;10.40;8.23;;;;;;;;;;5093319;28;20079;-75
2023/04/18 08:48:41;;;;;;;9.88;8.07;;;;;;;;;;5093097;28;20051;-75
2023/04/18 08:51:08;;;;;;;10.52;8.38;;;;;;;;;;5083633;28;20040;-75
2023/04/18 08:53:34;;;;;;;11.85;8.30;;;;;;;;;;5076218;28;20070;-75
2023/04/18 08:56:00;;;;;;;13.38;8.45;;;;;;;;;;5093429;28;20040;-75
2023/04/18 08:58:26;;;;;;;10.43;8.68;;;;;;;;;;5093218;28;20398;-75
2023/04/18 09:00:55;;;;;;;13.07;8.38;;;;;;;;;;5093664;28;20055;-75
2023/04/18 09:03:38;;;;;;;11.65;8.07;;;;;;;;;;5092446;28;20127;-75
2023/04/18 09:06:08;;;;;;;12.05;9.32;;;;;;;;;;5073204;28;20040;-75
2023/04/18 09:08:34;;;;;;;10.80;8.40;;;;;;;;;;5075701;28;20548;-75
2023/04/18 09:11:19;;;;;;;13.73;8.63;;;;;;;;;;5087897;28;20060;-74
2023/04/18 09:13:46;;;;;;;12.85;8.65;;;;;;;;;;5080034;28;20036;-75
2023/04/18 09:16:13;;;;;;;11.25;8.65;;;;;;;;;;5096921;28;20385;-75
2023/04/18 09:18:41;;;;;;;13.80;9.13;;;;;;;;;;5096820;28;20048;-75
2023/04/18 09:21:20;;;;;;;11.85;8.57;;;;;;;;;;5095292;28;20052;-75
2023/04/18 09:23:46;;;;;;;11.25;8.80;;;;;;;;;;5085842;28;20035;-75
2023/04/18 09:26:12;;;;;;;13.30;9.23;;;;;;;;;;5096788;28;20070;-74
2023/04/18 09:28:40;;;;;;;12.30;8.65;;;;;;;;;;5097096;28;20044;-74
2023/04/18 09:31:14;;;;;;;13.45;9.10;;;;;;;;;;5096890;28;20533;-75
2023/04/18 09:33:42;;;;;;;14.52;9.07;;;;;;;;;;5076832;28;20048;-76
2023/04/18 09:36:17;;;;;;;16.83;9.88;;;;;;;;;;5059172;28;20056;-76
2023/04/18 09:38:43;;;;;;;11.85;9.18;;;;;;;;;;5079211;28;20097;-75
2023/04/18 09:41:10;;;;;;;12.82;9.05;;;;;;;;;;5097378;28;20065;-76
2023/04/18 09:43:36;;;;;;;11.95;8.40;;;;;;;;;;5097404;28;20480;-76
2023/04/18 09:46:03;;;;;;;11.27;8.57;;;;;;;;;;5086216;28;20049;-75
2023/04/18 09:48:29;;;;;;;13.60;8.73;;;;;;;;;;5075982;28;20147;-75
2023/04/18 09:50:56;;;;;;;11.82;8.35;;;;;;;;;;5096001;28;20082;-75
2023/04/18 09:53:22;;;;;;;11.85;8.95;;;;;;;;;;5097574;28;20105;-79
2023/04/18 09:55:52;;;;;;;12.82;8.77;;;;;;;;;;5097148;28;20055;-75
2023/04/18 09:58:22;;;;;;;11.75;8.40;;;;;;;;;;5095590;28;20047;-75
2023/04/18 10:00:52;;;;;;;11.23;8.82;;;;;;;;;;5095224;28;20131;-75
2023/04/18 10:03:19;;;;;;;10.60;8.57;;;;;;;;;;5095143;28;20491;-75
2023/04/18 10:05:46;;;;;;;13.00;8.98;;;;;;;;;;5095474;28;20044;-76
2023/04/18 10:08:13;;;;;;;11.88;8.98;;;;;;;;;;5093160;28;20067;-76
2023/04/18 10:10:40;;;;;;;14.32;9.30;;;;;;;;;;5096169;28;20062;-76
2023/04/18 10:13:09;;;;;;;11.25;8.93;;;;;;;;;;5089406;28;20037;-76
2023/04/18 10:15:36;;;;;;;10.25;8.70;;;;;;;;;;5091747;28;20474;-76
2023/04/18 10:18:06;;;;;;;11.50;8.95;;;;;;;;;;5096583;28;20071;-76
2023/04/18 10:20:33;;;;;;;10.43;8.32;;;;;;;;;;5094859;28;20056;-75
2023/04/18 10:23:03;;;;;;;13.63;8.88;;;;;;;;;;5095430;28;20036;-75
2023/04/18 10:25:34;;;;;;;13.35;9.10;;;;;;;;;;5095864;28;20048;-76
2023/04/18 10:28:02;;;;;;;10.32;8.00;;;;;;;;;;5096288;28;20158;-76
2023/04/18 10:30:40;;;;;;;10.95;8.38;;;;;;;;;;5091601;28;20072;-75
2023/04/18 10:33:24;;;;;;;11.02;8.23;;;;;;;;;;5090530;28;20036;-75
2023/04/18 10:36:09;;;;;;;11.55;7.82;;;;;;;;;;5088314;28;20119;-76
2023/04/18 10:38:44;;;;;;;11.02;7.88;;;;;;;;;;5071118;28;20106;-76
2023/04/18 10:41:20;;;;;;;11.07;8.05;;;;;;;;;;5094653;28;20048;-75
2023/04/18 10:44:04;;;;;;;11.43;8.57;;;;;;;;;;5092429;28;20048;-75
2023/04/18 10:46:30;;;;;;;11.38;8.90;;;;;;;;;;5084306;28;20055;-75
2023/04/18 10:49:14;;;;;;;11.23;8.40;;;;;;;;;;5080621;28;20115;-76
2023/04/18 10:51:41;;;;;;;13.32;9.18;;;;;;;;;;5085606;28;20043;-76
2023/04/18 10:54:09;;;;;;;12.27;7.90;;;;;;;;;;5095172;28;20054;-76
2023/04/18 10:56:35;;;;;;;10.07;7.95;;;;;;;;;;5094956;28;20047;-76
2023/04/18 10:59:02;;;;;;;10.38;7.60;;;;;;;;;;5094847;28;20452;-76
2023/04/18 11:01:31;;;;;;;11.02;8.00;;;;;;;;;;5074846;28;20482;-75
2023/04/18 11:03:58;;;;;;;9.23;7.43;;;;;;;;;;5074991;28;20098;-75
2023/04/18 11:06:26;;;;;;;11.02;7.93;;;;;;;;;;5082982;28;20123;-75
2023/04/18 11:08:52;;;;;;;12.50;8.20;;;;;;;;;;5074767;28;20044;-75
2023/04/18 11:11:18;;;;;;;11.93;8.60;;;;;;;;;;5092882;28;20047;-75
2023/04/18 11:13:57;;;;;;;10.20;7.82;;;;;;;;;;5095427;28;20078;-76
2023/04/18 11:16:27;;;;;;;11.93;8.18;;;;;;;;;;5093235;28;20132;-76
2023/04/18 11:18:54;;;;;;;10.95;7.45;;;;;;;;;;5095247;28;20036;-76
2023/04/18 11:21:20;;;;;;;11.02;8.43;;;;;;;;;;5094877;28;20131;-76
2023/04/18 11:23:46;;;;;;;7.68;6.45;;;;;;;;;;5094526;28;20040;-76
2023/04/18 11:26:16;;;;;;;10.05;6.47;;;;;;;;;;5094119;28;20040;-77
2023/04/18 11:28:42;;;;;;;7.38;6.05;;;;;;;;;;5094579;28;20554;-77
2023/04/18 11:31:09;;;;;;;8.57;6.32;;;;;;;;;;5094760;28;20144;-76
2023/04/18 11:33:35;;;;;;;9.02;6.35;;;;;;;;;;5093493;28;20040;-77
2023/04/18 11:36:01;;;;;;;9.30;6.50;;;;;;;;;;5094450;28;20036;-77
2023/04/18 11:38:29;;;;;;;9.85;6.50;;;;;;;;;;5080338;28;20071;-77
2023/04/18 11:40:55;;;;;;;10.88;7.20;;;;;;;;;;5094446;28;20110;-76
2023/04/18 11:43:22;;;;;;;11.63;8.30;;;;;;;;;;5094555;28;20535;-76
2023/04/18 11:45:51;;;;;;;10.07;8.13;;;;;;;;;;5093452;28;20044;-77
2023/04/18 11:48:17;;;;;;;12.88;8.85;;;;;;;;;;5093897;28;20555;-77
2023/04/18 11:50:44;;;;;;;17.60;10.27;;;;;;;;;;5092894;28;20040;-76
2023/04/18 11:53:10;;;;;;;14.07;9.73;;;;;;;;;;5093683;28;20043;-77
2023/04/18 11:55:36;;;;;;;18.35;10.48;;;;;;;;;;5090221;28;20537;-77
2023/04/18 11:58:02;;;;;;;17.08;10.75;;;;;;;;;;5093546;28;20489;-76
2023/04/18 12:00:37;;;;;;;15.70;9.90;;;;;;;;;;5094320;28;20115;-77
2023/04/18 12:03:04;;;;;;;14.32;10.20;;;;;;;;;;5094399;28;20055;-76
2023/04/18 12:05:31;;;;;;;18.67;10.52;;;;;;;;;;5094243;28;20035;-77
2023/04/18 12:08:13;;;;;;;15.05;11.27;;;;;;;;;;5093359;28;20036;-76
2023/04/18 12:10:49;;;;;;;17.23;10.90;;;;;;;;;;5088106;28;20039;-76
2023/04/18 12:13:15;;;;;;;18.08;11.20;;;;;;;;;;5093881;28;20051;-76
2023/04/18 12:15:43;;;;;;;14.98;10.55;;;;;;;;;;5094022;28;20040;-76
2023/04/18 12:18:10;;;;;;;14.70;10.80;;;;;;;;;;5094301;28;20078;-76
2023/04/18 12:20:45;;;;;;;15.32;10.90;;;;;;;;;;5093527;28;20063;-76
2023/04/18 12:23:32;;;;;;;18.42;10.98;;;;;;;;;;5093544;28;20508;-77
2023/04/18 12:26:10;;;;;;;18.23;10.23;;;;;;;;;;5066700;28;20095;-76
2023/04/18 12:28:36;;;;;;;14.32;10.50;;;;;;;;;;5074033;28;20052;-76
2023/04/18 12:31:06;;;;;;;16.48;11.32;;;;;;;;;;5085804;28;20040;-76
2023/04/18 12:33:32;;;;;;;18.30;11.43;;;;;;;;;;5092571;28;20491;-76
2023/04/18 12:35:58;;;;;;;13.80;10.02;;;;;;;;;;5084137;28;20087;-76
2023/04/18 12:38:24;;;;;;;13.02;8.82;;;;;;;;;;5076426;28;20060;-76
2023/04/18 12:40:51;;;;;;;11.25;7.95;;;;;;;;;;5093456;28;20040;-76
2023/04/18 12:43:17;;;;;;;9.90;7.65;;;;;;;;;;5093708;28;20050;-76
2023/04/18 12:45:44;;;;;;;13.32;8.50;;;;;;;;;;5097994;28;20047;-76
2023/04/18 12:48:10;;;;;;;16.48;11.38;;;;;;;;;;5097896;28;20434;-76
2023/04/18 12:50:37;;;;;;;17.63;11.23;;;;;;;;;;5097206;28;20517;-75
2023/04/18 12:53:03;;;;;;;15.75;10.88;;;;;;;;;;5096585;28;20109;-79
2023/04/18 12:55:29;;;;;;;17.25;10.65;;;;;;;;;;5098721;28;20056;-76
2023/04/18 12:57:56;;;;;;;17.50;11.57;;;;;;;;;;5087915;28;20067;-75
2023/04/18 13:00:23;;;;;;;18.17;11.10;;;;;;;;;;5079596;28;20083;-75
2023/04/18 13:02:51;;;;;;;16.83;11.35;;;;;;;;;;5097689;28;20146;-77
2023/04/18 13:05:18;;;;;;;17.27;11.25;;;;;;;;;;5094032;28;20110;-75
2023/04/18 13:07:47;;;;;;;15.98;11.30;;;;;;;;;;5097365;28;20082;-74
2023/04/18 13:10:14;;;;;;;17.13;11.80;;;;;;;;;;5097735;28;20047;-76
2023/04/18 13:12:40;;;;;;;15.63;11.75;;;;;;;;;;5097430;28;20165;-75
2023/04/18 13:15:07;;;;;;;14.48;11.02;;;;;;;;;;5101465;28;20040;-75
2023/04/18 13:17:35;;;;;;;17.90;11.75;;;;;;;;;;5098951;28;20043;-75
2023/04/18 13:20:03;;;;;;;18.30;11.13;;;;;;;;;;5077988;28;20063;-75
2023/04/18 13:22:30;;;;;;;18.13;11.52;;;;;;;;;;5097389;28;20067;-75
2023/04/18 13:24:56;;;;;;;16.63;11.77;;;;;;;;;;5079526;28;20052;-75
2023/04/18 13:27:22;;;;;;;18.98;11.57;;;;;;;;;;5096075;28;20044;-75
2023/04/18 13:29:48;;;;;;;11.40;8.45;;;;;;;;;;5097047;28;20040;-75
2023/04/18 13:32:20;;;;;;;12.13;9.50;;;;;;;;;;5097210;28;20051;-75
2023/04/18 13:34:47;;;;;;;13.82;10.00;;;;;;;;;;5087447;28;20047;-75
2023/04/18 13:37:14;;;;;;;11.18;9.27;;;;;;;;;;5094434;28;20406;-75
2023/04/18 13:39:43;;;;;;;11.95;9.20;;;;;;;;;;5067709;28;20056;-74
2023/04/18 13:42:09;;;;;;;14.10;10.35;;;;;;;;;;5093718;28;20048;-75
2023/04/18 13:44:36;;;;;;;11.57;9.38;;;;;;;;;;5096520;28;20054;-75
2023/04/18 13:47:02;;;;;;;12.45;10.25;;;;;;;;;;5096699;28;20040;-75
2023/04/18 13:49:32;;;;;;;12.90;10.45;;;;;;;;;;5096604;28;20119;-75
2023/04/18 13:52:04;;;;;;;16.30;10.70;;;;;;;;;;5092204;28;20433;-75
2023/04/18 13:54:31;;;;;;;12.48;10.07;;;;;;;;;;5096751;28;20055;-75
2023/04/18 13:56:58;;;;;;;13.75;11.38;;;;;;;;;;5095470;28;20071;-75
2023/04/18 13:59:25;;;;;;;13.10;11.00;;;;;;;;;;5096080;28;20070;-75
2023/04/18 14:01:51;;;;;;;14.75;11.02;;;;;;;;;;5096234;28;20075;-75
2023/04/18 14:04:17;;;;;;;14.05;10.93;;;;;;;;;;5094299;28;20478;-75
2023/04/18 14:06:44;;;;;;;16.58;10.57;;;;;;;;;;5097046;28;20040;-75
2023/04/18 14:09:12;;;;;;;14.85;10.55;;;;;;;;;;5094451;28;20082;-75
2023/04/18 14:11:39;;;;;;;18.42;12.20;;;;;;;;;;5096056;28;20047;-75
2023/04/18 14:14:08;;;;;;;17.65;11.82;;;;;;;;;;5096480;28;20136;-75
2023/04/18 14:16:34;;;;;;;12.07;10.40;;;;;;;;;;5095950;28;20378;-75
2023/04/18 14:19:01;;;;;;;13.75;10.57;;;;;;;;;;5095436;28;20044;-75
2023/04/18 14:21:27;;;;;;;14.30;10.13;;;;;;;;;;5094983;28;20083;-75
2023/04/18 14:23:53;;;;;;;12.75;10.65;;;;;;;;;;5087245;28;20072;-75
2023/04/18 14:26:20;;;;;;;13.15;11.75;;;;;;;;;;5083517;28;20111;-75